sensor_id;sensor_type;location;lat;lon;timestamp;pressure;altitude;pressure_sealevel;temperature
28305;BMP280;15569;42.652;23.040;2022-11-15T00:01:37;93486.31;;;6.06
28305;BMP280;15569;42.652;23.040;2022-11-15T00:04:04;93489.91;;;5.91
28305;BMP280;15569;42.652;23.040;2022-11-15T00:06:30;93483.09;;;5.90
28305;BMP280;15569;42.652;23.040;2022-11-15T00:08:58;93487.00;;;5.80
28305;BMP280;15569;42.652;23.040;2022-11-15T00:11:23;93479.13;;;5.91
28305;BMP280;15569;42.652;23.040;2022-11-15T00:13:49;93475.66;;;5.81
28305;BMP280;15569;42.652;23.040;2022-11-15T00:16:14;93474.56;;;5.84
28305;BMP280;15569;42.652;23.040;2022-11-15T00:18:40;93485.09;;;5.73
28305;BMP280;15569;42.652;23.040;2022-11-15T00:21:07;93488.97;;;5.79
28305;BMP280;15569;42.652;23.040;2022-11-15T00:23:34;93477.72;;;5.90
28305;BMP280;15569;42.652;23.040;2022-11-15T00:26:00;93476.59;;;5.93
28305;BMP280;15569;42.652;23.040;2022-11-15T00:28:26;93485.84;;;6.00
28305;BMP280;15569;42.652;23.040;2022-11-15T00:30:52;93476.75;;;5.95
28305;BMP280;15569;42.652;23.040;2022-11-15T00:33:17;93481.50;;;5.87
28305;BMP280;15569;42.652;23.040;2022-11-15T00:35:43;93482.56;;;5.75
28305;BMP280;15569;42.652;23.040;2022-11-15T00:38:08;93470.16;;;5.89
28305;BMP280;15569;42.652;23.040;2022-11-15T00:40:34;93464.69;;;5.79
28305;BMP280;15569;42.652;23.040;2022-11-15T00:42:59;93489.44;;;5.85
28305;BMP280;15569;42.652;23.040;2022-11-15T00:45:25;93483.91;;;5.83
28305;BMP280;15569;42.652;23.040;2022-11-15T00:47:51;93482.44;;;5.99
28305;BMP280;15569;42.652;23.040;2022-11-15T00:50:17;93474.72;;;5.69
28305;BMP280;15569;42.652;23.040;2022-11-15T00:52:43;93487.25;;;5.74
28305;BMP280;15569;42.652;23.040;2022-11-15T00:55:18;93477.66;;;5.64
28305;BMP280;15569;42.652;23.040;2022-11-15T00:57:44;93480.59;;;5.75
28305;BMP280;15569;42.652;23.040;2022-11-15T01:00:11;93477.50;;;5.79
28305;BMP280;15569;42.652;23.040;2022-11-15T01:02:37;93474.56;;;5.84
28305;BMP280;15569;42.652;23.040;2022-11-15T01:05:03;93462.56;;;5.43
28305;BMP280;15569;42.652;23.040;2022-11-15T01:07:28;93471.94;;;5.60
28305;BMP280;15569;42.652;23.040;2022-11-15T01:09:53;93482.66;;;5.67
28305;BMP280;15569;42.652;23.040;2022-11-15T01:12:19;93472.47;;;5.58
28305;BMP280;15569;42.652;23.040;2022-11-15T01:14:44;93482.16;;;5.61
28305;BMP280;15569;42.652;23.040;2022-11-15T01:17:10;93477.72;;;5.56
28305;BMP280;15569;42.652;23.040;2022-11-15T01:19:35;93461.25;;;5.69
28305;BMP280;15569;42.652;23.040;2022-11-15T01:22:00;93474.47;;;5.58
28305;BMP280;15569;42.652;23.040;2022-11-15T01:24:26;93473.16;;;5.66
28305;BMP280;15569;42.652;23.040;2022-11-15T01:26:51;93464.50;;;5.51
28305;BMP280;15569;42.652;23.040;2022-11-15T01:29:17;93470.13;;;5.62
28305;BMP280;15569;42.652;23.040;2022-11-15T01:31:42;93458.88;;;5.39
28305;BMP280;15569;42.652;23.040;2022-11-15T01:34:08;93474.47;;;5.58
28305;BMP280;15569;42.652;23.040;2022-11-15T01:36:33;93466.16;;;5.63
28305;BMP280;15569;42.652;23.040;2022-11-15T01:38:59;93462.38;;;5.49
28305;BMP280;15569;42.652;23.040;2022-11-15T01:41:27;93467.28;;;5.60
28305;BMP280;15569;42.652;23.040;2022-11-15T01:43:55;93457.69;;;5.67
28305;BMP280;15569;42.652;23.040;2022-11-15T01:48:47;93461.47;;;5.47
28305;BMP280;15569;42.652;23.040;2022-11-15T01:51:16;93462.91;;;5.30
28305;BMP280;15569;42.652;23.040;2022-11-15T01:53:45;93453.06;;;5.25
28305;BMP280;15569;42.652;23.040;2022-11-15T01:56:14;93462.28;;;5.22
28305;BMP280;15569;42.652;23.040;2022-11-15T01:58:40;93464.16;;;5.29
28305;BMP280;15569;42.652;23.040;2022-11-15T02:01:07;93466.47;;;5.50
28305;BMP280;15569;42.652;23.040;2022-11-15T02:06:09;93461.47;;;5.29
28305;BMP280;15569;42.652;23.040;2022-11-15T02:08:35;93465.03;;;5.32
28305;BMP280;15569;42.652;23.040;2022-11-15T02:52:03;93437.84;;;5.03
28305;BMP280;15569;42.652;23.040;2022-11-15T02:54:31;93444.19;;;4.98
28305;BMP280;15569;42.652;23.040;2022-11-15T02:57:16;93446.72;;;5.13
28305;BMP280;15569;42.652;23.040;2022-11-15T02:59:47;93440.13;;;5.07
28305;BMP280;15569;42.652;23.040;2022-11-15T03:05:09;93443.78;;;5.02
28305;BMP280;15569;42.652;23.040;2022-11-15T03:07:51;93435.75;;;4.94
28305;BMP280;15569;42.652;23.040;2022-11-15T03:15:45;93435.47;;;5.07
28305;BMP280;15569;42.652;23.040;2022-11-15T03:18:38;93443.13;;;5.11
28305;BMP280;15569;42.652;23.040;2022-11-15T03:21:08;93444.41;;;5.10
28305;BMP280;15569;42.652;23.040;2022-11-15T03:23:36;93437.84;;;5.03
28305;BMP280;15569;42.652;23.040;2022-11-15T03:26:05;93429.50;;;5.09
28305;BMP280;15569;42.652;23.040;2022-11-15T03:28:42;93427.34;;;4.90
28305;BMP280;15569;42.652;23.040;2022-11-15T03:31:11;93421.72;;;4.78
28305;BMP280;15569;42.652;23.040;2022-11-15T03:33:57;93417.38;;;4.83
28305;BMP280;15569;42.652;23.040;2022-11-15T03:36:24;93419.84;;;4.89
28305;BMP280;15569;42.652;23.040;2022-11-15T03:38:54;93421.41;;;4.92
28305;BMP280;15569;42.652;23.040;2022-11-15T03:41:29;93410.41;;;4.80
28305;BMP280;15569;42.652;23.040;2022-11-15T03:44:04;93419.44;;;4.92
28305;BMP280;15569;42.652;23.040;2022-11-15T03:46:38;93414.84;;;4.85
28305;BMP280;15569;42.652;23.040;2022-11-15T03:49:09;93406.66;;;4.93
28305;BMP280;15569;42.652;23.040;2022-11-15T03:51:35;93404.53;;;4.91
28305;BMP280;15569;42.652;23.040;2022-11-15T03:54:03;93401.00;;;4.89
28305;BMP280;15569;42.652;23.040;2022-11-15T03:56:29;93402.09;;;4.86
28305;BMP280;15569;42.652;23.040;2022-11-15T03:58:54;93390.03;;;4.69
28305;BMP280;15569;42.652;23.040;2022-11-15T04:01:19;93402.69;;;4.76
28305;BMP280;15569;42.652;23.040;2022-11-15T04:03:45;93395.44;;;4.87
28305;BMP280;15569;42.652;23.040;2022-11-15T04:06:10;93401.03;;;4.81
28305;BMP280;15569;42.652;23.040;2022-11-15T04:08:36;93397.31;;;4.76
28305;BMP280;15569;42.652;23.040;2022-11-15T04:11:01;93401.13;;;4.91
28305;BMP280;15569;42.652;23.040;2022-11-15T04:13:26;93397.25;;;4.84
28305;BMP280;15569;42.652;23.040;2022-11-15T04:15:52;93396.88;;;4.88
28305;BMP280;15569;42.652;23.040;2022-11-15T04:18:17;93402.81;;;4.86
28305;BMP280;15569;42.652;23.040;2022-11-15T04:20:42;93394.00;;;4.86
28305;BMP280;15569;42.652;23.040;2022-11-15T04:23:26;93398.19;;;4.79
28305;BMP280;15569;42.652;23.040;2022-11-15T04:26:18;93403.72;;;4.81
28305;BMP280;15569;42.652;23.040;2022-11-15T04:28:45;93393.91;;;4.76
28305;BMP280;15569;42.652;23.040;2022-11-15T04:31:29;93387.72;;;4.66
28305;BMP280;15569;42.652;23.040;2022-11-15T04:33:54;93371.47;;;4.56
28305;BMP280;15569;42.652;23.040;2022-11-15T04:36:20;93382.25;;;4.73
28305;BMP280;15569;42.652;23.040;2022-11-15T04:39:04;93388.78;;;4.88
28305;BMP280;15569;42.652;23.040;2022-11-15T04:41:30;93386.41;;;4.92
28305;BMP280;15569;42.652;23.040;2022-11-15T04:43:55;93381.16;;;4.94
28305;BMP280;15569;42.652;23.040;2022-11-15T04:46:22;93377.94;;;4.95
28305;BMP280;15569;42.652;23.040;2022-11-15T04:48:48;93385.44;;;4.80
28305;BMP280;15569;42.652;23.040;2022-11-15T04:51:14;93373.00;;;4.84
28305;BMP280;15569;42.652;23.040;2022-11-15T04:56:14;93377.47;;;4.89
28305;BMP280;15569;42.652;23.040;2022-11-15T04:58:40;93377.13;;;4.85
28305;BMP280;15569;42.652;23.040;2022-11-15T05:01:09;93378.31;;;4.92
28305;BMP280;15569;42.652;23.040;2022-11-15T05:03:36;93382.25;;;4.91
28305;BMP280;15569;42.652;23.040;2022-11-15T05:06:19;93373.81;;;4.94
28305;BMP280;15569;42.652;23.040;2022-11-15T05:08:45;93379.72;;;4.93
28305;BMP280;15569;42.652;23.040;2022-11-15T05:11:10;93386.81;;;4.88
28305;BMP280;15569;42.652;23.040;2022-11-15T05:13:36;93384.25;;;4.90
28305;BMP280;15569;42.652;23.040;2022-11-15T05:16:01;93382.78;;;4.72
28305;BMP280;15569;42.652;23.040;2022-11-15T05:18:27;93376.41;;;4.67
28305;BMP280;15569;42.652;23.040;2022-11-15T05:20:52;93380.19;;;4.64
28305;BMP280;15569;42.652;23.040;2022-11-15T05:23:17;93379.84;;;4.60
28305;BMP280;15569;42.652;23.040;2022-11-15T05:25:43;93384.13;;;4.46
28305;BMP280;15569;42.652;23.040;2022-11-15T05:59:35;93390.31;;;4.98
28305;BMP280;15569;42.652;23.040;2022-11-15T06:02:00;93391.78;;;4.92
28305;BMP280;15569;42.652;23.040;2022-11-15T06:04:26;93386.41;;;4.92
28305;BMP280;15569;42.652;23.040;2022-11-15T06:06:52;93384.97;;;5.08
28305;BMP280;15569;42.652;23.040;2022-11-15T06:09:17;93381.34;;;5.30
28305;BMP280;15569;42.652;23.040;2022-11-15T06:11:43;93386.63;;;5.37
28305;BMP280;15569;42.652;23.040;2022-11-15T06:14:08;93385.50;;;5.40
28305;BMP280;15569;42.652;23.040;2022-11-15T06:16:34;93392.25;;;5.32
28305;BMP280;15569;42.652;23.040;2022-11-15T06:18:59;93390.44;;;5.52
28305;BMP280;15569;42.652;23.040;2022-11-15T06:21:24;93380.75;;;5.49
28305;BMP280;15569;42.652;23.040;2022-11-15T06:23:53;93400.34;;;5.49
28305;BMP280;15569;42.652;23.040;2022-11-15T06:26:19;93396.94;;;4.80
28305;BMP280;15569;42.652;23.040;2022-11-15T06:28:44;93381.41;;;5.22
28305;BMP280;15569;42.652;23.040;2022-11-15T06:31:10;93379.47;;;5.50
28305;BMP280;15569;42.652;23.040;2022-11-15T06:33:36;93385.13;;;5.44
28305;BMP280;15569;42.652;23.040;2022-11-15T06:36:03;93391.44;;;5.56
28305;BMP280;15569;42.652;23.040;2022-11-15T06:38:29;93396.53;;;5.69
28305;BMP280;15569;42.652;23.040;2022-11-15T06:41:01;93396.44;;;5.86
28305;BMP280;15569;42.652;23.040;2022-11-15T06:43:27;93386.91;;;5.85
28305;BMP280;15569;42.652;23.040;2022-11-15T06:45:52;93393.88;;;5.79
28305;BMP280;15569;42.652;23.040;2022-11-15T06:48:17;93389.94;;;5.89
28305;BMP280;15569;42.652;23.040;2022-11-15T06:50:43;93394.81;;;6.00
28305;BMP280;15569;42.652;23.040;2022-11-15T06:53:14;93388.22;;;5.23
28305;BMP280;15569;42.652;23.040;2022-11-15T06:55:40;93396.75;;;5.64
28305;BMP280;15569;42.652;23.040;2022-11-15T06:58:05;93389.75;;;5.78
28305;BMP280;15569;42.652;23.040;2022-11-15T07:00:31;93391.19;;;6.15
28305;BMP280;15569;42.652;23.040;2022-11-15T07:02:59;93389.28;;;6.35
28305;BMP280;15569;42.652;23.040;2022-11-15T07:05:25;93392.94;;;6.30
28305;BMP280;15569;42.652;23.040;2022-11-15T07:07:51;93385.34;;;6.55
28305;BMP280;15569;42.652;23.040;2022-11-15T07:10:17;93393.41;;;7.10
28305;BMP280;15569;42.652;23.040;2022-11-15T07:12:46;93389.56;;;7.23
28305;BMP280;15569;42.652;23.040;2022-11-15T07:15:12;93386.31;;;7.34
28305;BMP280;15569;42.652;23.040;2022-11-15T07:17:37;93386.25;;;7.43
28305;BMP280;15569;42.652;23.040;2022-11-15T07:20:03;93381.03;;;7.46
28305;BMP280;15569;42.652;23.040;2022-11-15T07:22:28;93382.59;;;7.49
28305;BMP280;15569;42.652;23.040;2022-11-15T07:24:54;93371.19;;;7.40
28305;BMP280;15569;42.652;23.040;2022-11-15T07:27:19;93387.69;;;7.45
28305;BMP280;15569;42.652;23.040;2022-11-15T07:29:45;93376.75;;;7.14
28305;BMP280;15569;42.652;23.040;2022-11-15T07:32:10;93395.97;;;6.89
28305;BMP280;15569;42.652;23.040;2022-11-15T07:34:35;93396.69;;;7.18
28305;BMP280;15569;42.652;23.040;2022-11-15T07:37:01;93385.41;;;7.31
28305;BMP280;15569;42.652;23.040;2022-11-15T07:39:26;93396.34;;;7.53
28305;BMP280;15569;42.652;23.040;2022-11-15T07:41:52;93390.38;;;7.64
28305;BMP280;15569;42.652;23.040;2022-11-15T07:44:37;93382.13;;;7.71
28305;BMP280;15569;42.652;23.040;2022-11-15T07:47:02;93393.88;;;7.85
28305;BMP280;15569;42.652;23.040;2022-11-15T07:49:28;93379.28;;;8.09
28305;BMP280;15569;42.652;23.040;2022-11-15T07:51:53;93383.66;;;8.15
28305;BMP280;15569;42.652;23.040;2022-11-15T07:54:18;93374.50;;;8.29
28305;BMP280;15569;42.652;23.040;2022-11-15T07:56:44;93374.97;;;8.47
28305;BMP280;15569;42.652;23.040;2022-11-15T07:59:09;93369.25;;;8.73
28305;BMP280;15569;42.652;23.040;2022-11-15T08:01:35;93360.13;;;9.11
28305;BMP280;15569;42.652;23.040;2022-11-15T08:04:00;93367.06;;;9.47
28305;BMP280;15569;42.652;23.040;2022-11-15T08:06:25;93368.63;;;9.50
28305;BMP280;15569;42.652;23.040;2022-11-15T08:08:51;93365.84;;;9.83
28305;BMP280;15569;42.652;23.040;2022-11-15T08:11:16;93360.91;;;10.02
28305;BMP280;15569;42.652;23.040;2022-11-15T08:13:41;93358.31;;;10.16
28305;BMP280;15569;42.652;23.040;2022-11-15T08:16:08;93357.78;;;10.54
28305;BMP280;15569;42.652;23.040;2022-11-15T08:18:34;93353.16;;;10.57
28305;BMP280;15569;42.652;23.040;2022-11-15T08:21:00;93349.56;;;10.29
28305;BMP280;15569;42.652;23.040;2022-11-15T08:23:26;93359.25;;;10.09
28305;BMP280;15569;42.652;23.040;2022-11-15T08:25:51;93341.56;;;10.08
28305;BMP280;15569;42.652;23.040;2022-11-15T08:28:17;93350.44;;;10.57
28305;BMP280;15569;42.652;23.040;2022-11-15T08:30:42;93357.47;;;10.85
28305;BMP280;15569;42.652;23.040;2022-11-15T08:33:13;93350.91;;;11.01
28305;BMP280;15569;42.652;23.040;2022-11-15T08:35:40;93338.78;;;11.16
28305;BMP280;15569;42.652;23.040;2022-11-15T08:38:06;93337.00;;;11.21
28305;BMP280;15569;42.652;23.040;2022-11-15T08:40:31;93335.50;;;11.31
28305;BMP280;15569;42.652;23.040;2022-11-15T08:45:34;93331.66;;;11.23
28305;BMP280;15569;42.652;23.040;2022-11-15T08:48:03;93336.94;;;11.32
28305;BMP280;15569;42.652;23.040;2022-11-15T08:50:28;93329.72;;;11.12
28305;BMP280;15569;42.652;23.040;2022-11-15T08:52:54;93339.84;;;11.23
28305;BMP280;15569;42.652;23.040;2022-11-15T08:55:19;93334.66;;;10.90
28305;BMP280;15569;42.652;23.040;2022-11-15T08:57:45;93325.06;;;10.89
28305;BMP280;15569;42.652;23.040;2022-11-15T09:00:11;93315.50;;;11.38
28305;BMP280;15569;42.652;23.040;2022-11-15T09:02:40;93328.22;;;11.22
28305;BMP280;15569;42.652;23.040;2022-11-15T09:05:06;93323.97;;;11.44
28305;BMP280;15569;42.652;23.040;2022-11-15T09:07:32;93319.50;;;11.90
28305;BMP280;15569;42.652;23.040;2022-11-15T09:09:57;93308.63;;;12.03
28305;BMP280;15569;42.652;23.040;2022-11-15T09:12:23;93303.34;;;12.21
28305;BMP280;15569;42.652;23.040;2022-11-15T09:14:49;93291.19;;;12.51
28305;BMP280;15569;42.652;23.040;2022-11-15T09:17:14;93288.94;;;12.61
28305;BMP280;15569;42.652;23.040;2022-11-15T09:19:40;93279.66;;;13.11
28305;BMP280;15569;42.652;23.040;2022-11-15T09:22:07;93284.56;;;13.43
28305;BMP280;15569;42.652;23.040;2022-11-15T09:24:33;93280.28;;;13.72
28305;BMP280;15569;42.652;23.040;2022-11-15T09:26:58;93269.47;;;13.58
28305;BMP280;15569;42.652;23.040;2022-11-15T09:29:24;93271.03;;;13.16
28305;BMP280;15569;42.652;23.040;2022-11-15T09:31:51;93247.34;;;13.68
28305;BMP280;15569;42.652;23.040;2022-11-15T09:34:17;93258.47;;;14.05
28305;BMP280;15569;42.652;23.040;2022-11-15T09:36:42;93256.72;;;14.29
28305;BMP280;15569;42.652;23.040;2022-11-15T09:39:08;93254.09;;;14.66
28305;BMP280;15569;42.652;23.040;2022-11-15T09:41:39;93242.50;;;14.68
28305;BMP280;15569;42.652;23.040;2022-11-15T09:44:26;93249.75;;;14.79
28305;BMP280;15569;42.652;23.040;2022-11-15T09:49:55;93245.22;;;14.85
28305;BMP280;15569;42.652;23.040;2022-11-15T09:52:22;93234.84;;;14.64
28305;BMP280;15569;42.652;23.040;2022-11-15T09:54:49;93242.19;;;14.42
28305;BMP280;15569;42.652;23.040;2022-11-15T09:57:18;93231.81;;;14.56
28305;BMP280;15569;42.652;23.040;2022-11-15T10:05:22;93227.53;;;14.88
28305;BMP280;15569;42.652;23.040;2022-11-15T10:12:48;93214.28;;;15.57
28305;BMP280;15569;42.652;23.040;2022-11-15T10:15:17;93213.19;;;15.86
28305;BMP280;15569;42.652;23.040;2022-11-15T10:20:27;93213.28;;;15.68
28305;BMP280;15569;42.652;23.040;2022-11-15T10:22:59;93199.13;;;15.95
28305;BMP280;15569;42.652;23.040;2022-11-15T10:25:33;93202.41;;;16.33
28305;BMP280;15569;42.652;23.040;2022-11-15T10:28:04;93200.03;;;16.45
28305;BMP280;15569;42.652;23.040;2022-11-15T10:30:34;93185.22;;;16.33
28305;BMP280;15569;42.652;23.040;2022-11-15T10:36:17;93178.41;;;16.12
28305;BMP280;15569;42.652;23.040;2022-11-15T10:41:20;93162.97;;;16.23
28305;BMP280;15569;42.652;23.040;2022-11-15T10:46:34;93151.38;;;16.71
28305;BMP280;15569;42.652;23.040;2022-11-15T10:49:30;93163.72;;;16.96
28305;BMP280;15569;42.652;23.040;2022-11-15T10:56:53;93143.47;;;17.60
28305;BMP280;15569;42.652;23.040;2022-11-15T10:59:38;93130.81;;;17.77
28305;BMP280;15569;42.652;23.040;2022-11-15T11:02:36;93139.44;;;17.91
28305;BMP280;15569;42.652;23.040;2022-11-15T11:05:05;93134.56;;;17.89
28305;BMP280;15569;42.652;23.040;2022-11-15T11:07:33;93136.13;;;18.26
28305;BMP280;15569;42.652;23.040;2022-11-15T11:10:26;93133.22;;;18.20
28305;BMP280;15569;42.652;23.040;2022-11-15T11:12:51;93123.56;;;18.19
28305;BMP280;15569;42.652;23.040;2022-11-15T11:15:17;93126.38;;;18.21
28305;BMP280;15569;42.652;23.040;2022-11-15T11:23:09;93108.72;;;19.39
28305;BMP280;15569;42.652;23.040;2022-11-15T11:42:55;93073.09;;;22.02
28305;BMP280;15569;42.652;23.040;2022-11-15T11:50:34;93065.72;;;22.55
28305;BMP280;15569;42.652;23.040;2022-11-15T11:53:14;93067.22;;;22.82
28305;BMP280;15569;42.652;23.040;2022-11-15T11:55:50;93052.72;;;23.14
28305;BMP280;15569;42.652;23.040;2022-11-15T11:58:26;93057.50;;;24.05
28305;BMP280;15569;42.652;23.040;2022-11-15T12:01:04;93056.06;;;24.22
28305;BMP280;15569;42.652;23.040;2022-11-15T12:06:33;93044.88;;;24.39
28305;BMP280;15569;42.652;23.040;2022-11-15T12:09:10;93049.94;;;25.25
28305;BMP280;15569;42.652;23.040;2022-11-15T12:17:12;93030.81;;;25.61
28305;BMP280;15569;42.652;23.040;2022-11-15T12:19:39;93030.66;;;25.77
28305;BMP280;15569;42.652;23.040;2022-11-15T12:22:12;93024.81;;;26.56
28305;BMP280;15569;42.652;23.040;2022-11-15T12:25:01;93022.59;;;27.13
28305;BMP280;15569;42.652;23.040;2022-11-15T12:29:59;93013.78;;;27.78
28305;BMP280;15569;42.652;23.040;2022-11-15T12:32:35;93024.88;;;28.17
28305;BMP280;15569;42.652;23.040;2022-11-15T12:35:04;93021.91;;;28.27
28305;BMP280;15569;42.652;23.040;2022-11-15T12:40:25;93010.91;;;28.17
28305;BMP280;15569;42.652;23.040;2022-11-15T12:43:03;93003.22;;;28.17
28305;BMP280;15569;42.652;23.040;2022-11-15T12:45:34;92991.38;;;28.78
28305;BMP280;15569;42.652;23.040;2022-11-15T12:50:59;92998.22;;;28.85
28305;BMP280;15569;42.652;23.040;2022-11-15T13:04:21;92976.75;;;28.75
28305;BMP280;15569;42.652;23.040;2022-11-15T13:06:48;92985.19;;;29.30
28305;BMP280;15569;42.652;23.040;2022-11-15T13:12:03;92980.66;;;28.88
28305;BMP280;15569;42.652;23.040;2022-11-15T13:14:57;92969.28;;;29.49
28305;BMP280;15569;42.652;23.040;2022-11-15T13:17:28;92976.16;;;28.71
28305;BMP280;15569;42.652;23.040;2022-11-15T13:22:38;92973.31;;;28.75
28305;BMP280;15569;42.652;23.040;2022-11-15T13:25:26;92975.13;;;27.91
28305;BMP280;15569;42.652;23.040;2022-11-15T13:27:53;92972.16;;;28.31
28305;BMP280;15569;42.652;23.040;2022-11-15T13:30:25;92973.72;;;28.57
28305;BMP280;15569;42.652;23.040;2022-11-15T13:32:51;92974.13;;;28.98
28305;BMP280;15569;42.652;23.040;2022-11-15T13:35:28;92969.00;;;27.82
28305;BMP280;15569;42.652;23.040;2022-11-15T13:37:55;92961.31;;;27.05
28305;BMP280;15569;42.652;23.040;2022-11-15T13:40:33;92980.09;;;26.66
28305;BMP280;15569;42.652;23.040;2022-11-15T13:42:59;92958.16;;;26.38
28305;BMP280;15569;42.652;23.040;2022-11-15T13:45:39;92969.81;;;26.97
28305;BMP280;15569;42.652;23.040;2022-11-15T13:48:04;92963.72;;;27.29
28305;BMP280;15569;42.652;23.040;2022-11-15T13:50:33;92963.72;;;27.27
28305;BMP280;15569;42.652;23.040;2022-11-15T13:53:02;92966.59;;;25.79
28305;BMP280;15569;42.652;23.040;2022-11-15T13:55:31;92964.31;;;25.27
28305;BMP280;15569;42.652;23.040;2022-11-15T13:58:00;92973.31;;;25.34
28305;BMP280;15569;42.652;23.040;2022-11-15T14:00:41;92964.03;;;25.57
28305;BMP280;15569;42.652;23.040;2022-11-15T14:08:29;92956.94;;;22.30
28305;BMP280;15569;42.652;23.040;2022-11-15T14:11:15;92954.25;;;22.68
28305;BMP280;15569;42.652;23.040;2022-11-15T14:13:42;92955.56;;;22.37
28305;BMP280;15569;42.652;23.040;2022-11-15T14:16:19;92950.22;;;21.29
28305;BMP280;15569;42.652;23.040;2022-11-15T14:18:48;92943.56;;;20.77
28305;BMP280;15569;42.652;23.040;2022-11-15T14:21:14;92955.41;;;20.85
28305;BMP280;15569;42.652;23.040;2022-11-15T14:23:40;92949.25;;;20.25
28305;BMP280;15569;42.652;23.040;2022-11-15T14:26:05;92950.72;;;19.74
28305;BMP280;15569;42.652;23.040;2022-11-15T14:28:33;92953.69;;;19.39
28305;BMP280;15569;42.652;23.040;2022-11-15T14:31:10;92957.69;;;18.88
28305;BMP280;15569;42.652;23.040;2022-11-15T14:33:37;92950.28;;;18.59
28305;BMP280;15569;42.652;23.040;2022-11-15T14:38:38;92951.50;;;18.14
28305;BMP280;15569;42.652;23.040;2022-11-15T14:41:04;92949.66;;;17.91
28305;BMP280;15569;42.652;23.040;2022-11-15T14:43:29;92941.66;;;17.69
28305;BMP280;15569;42.652;23.040;2022-11-15T14:45:55;92953.78;;;17.58
28305;BMP280;15569;42.652;23.040;2022-11-15T14:48:20;92954.41;;;17.55
28305;BMP280;15569;42.652;23.040;2022-11-15T14:50:47;92960.22;;;17.39
28305;BMP280;15569;42.652;23.040;2022-11-15T14:53:16;92954.44;;;17.27
28305;BMP280;15569;42.652;23.040;2022-11-15T14:55:43;92949.94;;;17.12
28305;BMP280;15569;42.652;23.040;2022-11-15T14:58:09;92939.34;;;16.98
28305;BMP280;15569;42.652;23.040;2022-11-15T15:00:36;92947.81;;;16.81
28305;BMP280;15569;42.652;23.040;2022-11-15T15:03:03;92951.94;;;16.82
28305;BMP280;15569;42.652;23.040;2022-11-15T15:05:40;92946.59;;;16.60
28305;BMP280;15569;42.652;23.040;2022-11-15T15:08:07;92941.66;;;16.55
28305;BMP280;15569;42.652;23.040;2022-11-15T15:10:40;92952.94;;;16.39
28305;BMP280;15569;42.652;23.040;2022-11-15T15:13:12;92942.22;;;16.24
28305;BMP280;15569;42.652;23.040;2022-11-15T15:15:38;92937.69;;;16.08
28305;BMP280;15569;42.652;23.040;2022-11-15T15:18:04;92939.81;;;16.12
28305;BMP280;15569;42.652;23.040;2022-11-15T15:20:31;92935.47;;;16.03
28305;BMP280;15569;42.652;23.040;2022-11-15T15:22:57;92932.19;;;15.85
28305;BMP280;15569;42.652;23.040;2022-11-15T15:25:28;92933.81;;;15.94
28305;BMP280;15569;42.652;23.040;2022-11-15T15:27:54;92928.19;;;15.64
28305;BMP280;15569;42.652;23.040;2022-11-15T15:30:21;92936.50;;;15.68
28305;BMP280;15569;42.652;23.040;2022-11-15T15:32:47;92939.47;;;15.53
28305;BMP280;15569;42.652;23.040;2022-11-15T15:35:13;92937.94;;;15.48
28305;BMP280;15569;42.652;23.040;2022-11-15T15:37:40;92951.63;;;15.48
28305;BMP280;15569;42.652;23.040;2022-11-15T15:40:32;92932.53;;;15.50
28305;BMP280;15569;42.652;23.040;2022-11-15T15:42:58;92930.00;;;15.12
28305;BMP280;15569;42.652;23.040;2022-11-15T15:45:25;92935.47;;;15.12
28305;BMP280;15569;42.652;23.040;2022-11-15T15:47:51;92936.19;;;15.13
28305;BMP280;15569;42.652;23.040;2022-11-15T15:50:28;92936.28;;;14.95
28305;BMP280;15569;42.652;23.040;2022-11-15T15:52:58;92941.97;;;15.01
28305;BMP280;15569;42.652;23.040;2022-11-15T15:55:25;92932.63;;;14.87
28305;BMP280;15569;42.652;23.040;2022-11-15T15:57:51;92940.44;;;14.96
28305;BMP280;15569;42.652;23.040;2022-11-15T16:00:17;92936.59;;;14.84
28305;BMP280;15569;42.652;23.040;2022-11-15T16:02:43;92933.53;;;14.74
28305;BMP280;15569;42.652;23.040;2022-11-15T16:05:09;92939.75;;;14.55
28305;BMP280;15569;42.652;23.040;2022-11-15T16:07:35;92943.47;;;14.63
28305;BMP280;15569;42.652;23.040;2022-11-15T16:10:03;92945.00;;;14.49
28305;BMP280;15569;42.652;23.040;2022-11-15T16:12:39;92938.88;;;14.50
28305;BMP280;15569;42.652;23.040;2022-11-15T16:15:04;92937.22;;;14.41
28305;BMP280;15569;42.652;23.040;2022-11-15T16:17:33;92934.06;;;14.49
28305;BMP280;15569;42.652;23.040;2022-11-15T16:20:00;92933.22;;;14.44
28305;BMP280;15569;42.652;23.040;2022-11-15T16:22:26;92934.00;;;14.47
28305;BMP280;15569;42.652;23.040;2022-11-15T16:24:51;92927.88;;;14.48
28305;BMP280;15569;42.652;23.040;2022-11-15T16:27:18;92932.59;;;14.46
28305;BMP280;15569;42.652;23.040;2022-11-15T16:29:45;92931.38;;;14.51
28305;BMP280;15569;42.652;23.040;2022-11-15T16:32:11;92932.72;;;14.50
28305;BMP280;15569;42.652;23.040;2022-11-15T16:34:36;92928.94;;;14.59
28305;BMP280;15569;42.652;23.040;2022-11-15T16:37:02;92929.28;;;14.49
28305;BMP280;15569;42.652;23.040;2022-11-15T16:39:28;92935.53;;;14.52
28305;BMP280;15569;42.652;23.040;2022-11-15T16:41:56;92935.16;;;14.42
28305;BMP280;15569;42.652;23.040;2022-11-15T16:44:22;92930.63;;;14.48
28305;BMP280;15569;42.652;23.040;2022-11-15T16:46:49;92929.41;;;14.53
28305;BMP280;15569;42.652;23.040;2022-11-15T16:49:17;92923.56;;;14.41
28305;BMP280;15569;42.652;23.040;2022-11-15T16:51:44;92917.91;;;14.37
28305;BMP280;15569;42.652;23.040;2022-11-15T16:54:11;92927.88;;;14.48
28305;BMP280;15569;42.652;23.040;2022-11-15T16:56:37;92926.22;;;14.39
28305;BMP280;15569;42.652;23.040;2022-11-15T16:59:03;92922.13;;;14.40
28305;BMP280;15569;42.652;23.040;2022-11-15T17:01:30;92919.31;;;14.38
28305;BMP280;15569;42.652;23.040;2022-11-15T17:03:57;92929.44;;;14.33
28305;BMP280;15569;42.652;23.040;2022-11-15T17:06:24;92926.91;;;14.20
28305;BMP280;15569;42.652;23.040;2022-11-15T17:08:51;92915.56;;;14.27
28305;BMP280;15569;42.652;23.040;2022-11-15T17:11:19;92924.69;;;14.34
28305;BMP280;15569;42.652;23.040;2022-11-15T17:13:45;92920.81;;;14.21
28305;BMP280;15569;42.652;23.040;2022-11-15T17:16:16;92924.69;;;14.34
28305;BMP280;15569;42.652;23.040;2022-11-15T17:18:42;92922.97;;;14.25